Morbach UL

DE-0394 · Badenia-Wirtembergia, Niemcy

Historia METAR DE-0394 · Morbach UL

Poniżej widzisz METAR-y z ostatnich kilku dni. Wybierz rok, aby przeglądać starsze METAR-y, począwszy od roku 2007.

30 maja 2024

Czas Kod Pogoda Temp. Widoczność Sufit Wiatr METAR/SPECI
14:50
V
19 °C 10 km+ 3.200 ft 280° 280° 8 kt METAR EDTY 301250Z 28008KT 250V320 9999 BKN032 19/12 Q1005
14:20
V
18 °C 10 km+ 3.500 ft 290° 290° 9 kt METAR EDTY 301220Z 29009KT 9999 SCT030 BKN035 18/12 Q1005
13:50
M
18 °C 10 km+ 2.800 ft 270° 270° 10 kt METAR EDTY 301150Z 27010KT 220V300 9999 BKN028 18/11 Q1006
13:20
V
18 °C 10 km+ - 270° 270° 10 kt METAR EDTY 301120Z 27010KT 240V300 9999 FEW026 SCT030 18/13 Q1006
12:50
M
18 °C 10 km+ 3.000 ft 280° 280° 10 kt METAR EDTY 301050Z 28010KT 250V310 9999 SCT026 BKN030 18/12 Q1006
12:20
V
17 °C 10 km+ - 280° 280° 12 kt METAR EDTY 301020Z 28012KT 9999 FEW023 SCT026 17/12 Q1006
11:50
V
16 °C 10 km+ - 280° 280° 10 kt METAR EDTY 300950Z 28010KT 250V310 9999 SCT022 16/12 Q1006
11:20
M
15 °C 10 km+ 2.700 ft 280° 280° 11 kt METAR EDTY 300920Z 28011KT 9999 FEW016 SCT019 BKN027 15/12 Q1006
10:50
M
15 °C 10 km+ 1.600 ft 260° 260° 9 kt METAR EDTY 300850Z 26009KT 9999 BKN016 BKN021 OVC025 15/12 Q1006
10:20
M
15 °C 10 km+ 2.100 ft 250° 250° 12 kt METAR EDTY 300820Z 25012KT 220V280 9999 SCT013 BKN021 OVC024 15/12 Q1006
09:50
M
14 °C 10 km+ 2.200 ft 240° 240° 11 kt METAR EDTY 300750Z 24011KT 9999 FEW005 SCT015 OVC022 14/12 Q1006
09:20
M
13 °C 6 km 1.300 ft 250° 250° 6 kt METAR EDTY 300720Z 25006KT 6000 -RA SCT008 OVC013 13/12 Q1006 RERA
08:50
M
13 °C 9 km 1.600 ft 240° 240° 9 kt METAR EDTY 300650Z 24009KT 9000 RA FEW009 BKN016 BKN037 13/12 Q1006
08:20
V
14 °C 10 km+ 3.500 ft 240° 240° 8 kt METAR EDTY 300620Z AUTO 24008KT 9999 // SCT009/// BKN035/// BKN066/// 14/13 Q1006
07:50
V
14 °C 10 km+ 3.500 ft 240° 240° 7 kt METAR EDTY 300550Z AUTO 24007KT 9999 // FEW010/// SCT012/// BKN035/// 14/13 Q1006
07:20
M
13 °C 10 km+ 2.600 ft 220° 220° 6 kt METAR EDTY 300520Z AUTO 22006KT 190V250 9999 // SCT006/// BKN026/// OVC030/// 13/12 Q1006
06:50
M
13 °C 10 km+ 1.200 ft 260° 260° 5 kt METAR EDTY 300450Z AUTO 26005KT 210V280 9999 // SCT005/// SCT010/// OVC012/// 13/12 Q1006
06:20
M
12 °C 5 km 1.800 ft 150° 150° 5 kt METAR EDTY 300420Z AUTO 15005KT 120V190 5000 // FEW009/// SCT013/// OVC018/// 12/12 Q1006
05:50
M
13 °C 10 km+ 1.900 ft 130° 130° 5 kt METAR EDTY 300350Z AUTO 13005KT 100V160 9999 // FEW016/// BKN019/// OVC030/// 13/11 Q1006
05:20
V
13 °C 10 km+ 4.900 ft 150° 150° 4 kt METAR EDTY 300320Z AUTO 15004KT 110V230 9999 // SCT025/// OVC049/// 13/12 Q1007
04:50
V
13 °C 10 km+ 4.900 ft 120° 120° 3 kt METAR EDTY 300250Z AUTO 12003KT 080V180 9999 // FEW025/// SCT035/// OVC049/// 13/12 Q1007
04:20
V
13 °C 9 km 4.700 ft 160° 160° 4 kt METAR EDTY 300220Z AUTO 16004KT 130V190 9000 // SCT024/// BKN047/// OVC068/// 13/12 Q1008
03:50
V
13 °C 10 km+ 4.700 ft 150° 150° 3 kt METAR EDTY 300150Z AUTO 15003KT 120V190 9999 // SCT033/// OVC047/// 13/12 Q1008
03:20
V
13 °C 10 km+ 7.700 ft 160° 160° 3 kt METAR EDTY 300120Z AUTO 16003KT 130V200 9999 // FEW034/// SCT064/// OVC077/// 13/12 Q1008
02:50
V
13 °C 10 km+ 7.400 ft Var Var 2 kt METAR EDTY 300050Z AUTO VRB02KT 9999 // BKN074/// OVC091/// 13/12 Q1009
02:20
V
13 °C 10 km+ 7.000 ft 160° 160° 2 kt METAR EDTY 300020Z AUTO 16002KT 9999 // FEW057/// OVC070/// 13/13 Q1009
01:50
V
13 °C 10 km+ 4.400 ft 090° 090° 3 kt METAR EDTY 292350Z AUTO 09003KT 050V170 9999 // FEW027/// SCT038/// OVC044/// 13/13 Q1009
01:20
V
13 °C 10 km+ 3.600 ft Var Var 2 kt METAR EDTY 292320Z AUTO VRB02KT 9999 // OVC036/// 13/13 Q1010
00:50
M
13 °C 10 km+ 3.000 ft Var Var 2 kt METAR EDTY 292250Z AUTO VRB02KT 9999 // FEW011/// SCT020/// OVC030/// 13/13 Q1010
00:20
M
13 °C 10 km+ 2.000 ft 240° 240° 3 kt METAR EDTY 292220Z AUTO 24003KT 9999 // BKN020/// BKN026/// OVC031/// 13/13 Q1011

29 maja 2024

Czas Kod Pogoda Temp. Widoczność Sufit Wiatr METAR/SPECI
23:50
M
13 °C 10 km+ 2.500 ft Var Var 1 kt METAR EDTY 292150Z AUTO VRB01KT 9999 // FEW009/// BKN025/// OVC042/// 13/13 Q1011
23:20
V
13 °C 10 km+ 3.900 ft 260° 260° 3 kt METAR EDTY 292120Z AUTO 26003KT 240V300 9999 // FEW033/// BKN039/// OVC120/// 13/13 Q1011
22:50
M
14 °C 10 km+ 2.400 ft 230° 230° 4 kt METAR EDTY 292050Z AUTO 23004KT 9999 // FEW012/// BKN024/// OVC044/// 14/13 Q1011
22:20
I
14 °C 4,5 km 1.900 ft 270° 270° 7 kt METAR EDTY 292020Z AUTO 27007KT 4500 // SCT007/// BKN019/// OVC026/// 14/13 Q1012
21:50
M
14 °C 10 km+ 1.900 ft 280° 280° 4 kt METAR EDTY 291950Z AUTO 28004KT 9999 // FEW012/// BKN019/// OVC034/// 14/14 Q1012
21:20
V
14 °C 10 km+ 3.300 ft 250° 250° 3 kt METAR EDTY 291920Z AUTO 25003KT 9999 // FEW016/// BKN033/// OVC071/// 14/14 Q1012
20:50
V
14 °C 10 km+ 3.200 ft 260° 260° 3 kt METAR EDTY 291850Z AUTO 26003KT 200V290 9999 // SCT027/// OVC032/// 14/13 Q1012
20:20
M
14 °C 6 km 2.300 ft 230° 230° 3 kt METAR EDTY 291820Z AUTO 23003KT 200V280 6000 // BKN023/// OVC073/// 14/13 Q1012
19:50
V
15 °C 10 km+ - 230° 230° 5 kt METAR EDTY 291750Z 23005KT 200V260 9999 -RA FEW018 SCT043 15/13 Q1012
19:20
V
15 °C 10 km+ - 230° 230° 5 kt METAR EDTY 291720Z 23005KT 9999 -RA FEW021 15/13 Q1012
18:50
V
16 °C 10 km+ - 240° 240° 6 kt METAR EDTY 291650Z 24006KT 9999 -RA FEW024 16/12 Q1012
18:20
V
17 °C 10 km+ - 230° 230° 7 kt METAR EDTY 291620Z 23007KT 9999 SCT024 17/12 Q1013
17:50
V
17 °C 10 km+ - 240° 240° 7 kt METAR EDTY 291550Z 24007KT 9999 FEW020 SCT023 17/12 Q1013
17:20
V
17 °C 10 km+ - 220° 220° 6 kt METAR EDTY 291520Z 22006KT 190V250 9999 FEW019 SCT022 17/12 Q1013
16:50
V
16 °C 10 km+ - 240° 240° 5 kt METAR EDTY 291450Z 24005KT 9999 FEW015 SCT018 16/12 Q1013
16:20
V
16 °C 10 km+ 3.700 ft 230° 230° 5 kt METAR EDTY 291420Z 23005KT 200V260 9999 FEW032 BKN037 16/12 Q1013
15:50
V
15 °C 10 km+ - 220° 220° 4 kt METAR EDTY 291350Z 22004KT 9999 -RA FEW048 15/12 Q1014
15:20
V
16 °C 10 km+ 3.800 ft 260° 260° 9 kt METAR EDTY 291320Z 26009KT 9999 FEW032 BKN038 OVC047 16/11 Q1014
14:50
V
16 °C 10 km+ 3.900 ft 270° 270° 6 kt METAR EDTY 291250Z 27006KT 9999 OVC039 16/10 Q1014
14:20
V
17 °C 10 km+ 4.600 ft 260° 260° 7 kt METAR EDTY 291220Z 26007KT 220V310 9999 BKN046 17/10 Q1014
13:50
V
17 °C 10 km+ 3.300 ft 280° 280° 7 kt METAR EDTY 291150Z 28007KT 250V310 9999 BKN033 17/11 Q1014
13:20
V
18 °C 10 km+ 4.200 ft 300° 300° 6 kt METAR EDTY 291120Z 30006KT 260V330 9999 FEW031 BKN042 18/12 Q1015
12:50
V
18 °C 10 km+ - 300° 300° 7 kt METAR EDTY 291050Z 30007KT 250V340 9999 SCT036 SCT043 18/11 Q1015
12:20
V
17 °C 10 km+ - 270° 270° 8 kt METAR EDTY 291020Z 27008KT CAVOK 17/10 Q1015
11:50
V
18 °C 10 km+ - 240° 240° 7 kt METAR EDTY 290950Z 24007KT 9999 FEW024 18/10 Q1015
11:20
V
18 °C 10 km+ - 240° 240° 6 kt METAR EDTY 290920Z 24006KT 200V270 CAVOK 18/11 Q1015
10:50
V
18 °C 10 km+ - 220° 220° 5 kt METAR EDTY 290850Z 22005KT 160V270 CAVOK 18/10 Q1015
10:20
V
17 °C 10 km+ - 210° 210° 5 kt METAR EDTY 290820Z 21005KT 120V270 CAVOK 17/09 Q1015
09:50
V
16 °C 10 km+ - 230° 230° 4 kt METAR EDTY 290750Z 23004KT 190V270 CAVOK 16/10 Q1015
09:20
V
16 °C 10 km+ - 220° 220° 5 kt METAR EDTY 290720Z 22005KT 190V250 CAVOK 16/09 Q1016
08:50
V
15 °C 10 km+ - 220° 220° 4 kt METAR EDTY 290650Z 22004KT 190V250 CAVOK 15/09 Q1016
08:20
V
15 °C 10 km+ - 210° 210° 5 kt METAR EDTY 290620Z 21005KT 180V240 CAVOK 15/08 Q1016
07:50
V
14 °C 10 km+ - 230° 230° 3 kt METAR EDTY 290550Z 23003KT 180V270 CAVOK 14/10 Q1016
07:20
V
13 °C 10 km+ - 360° 360° 0 kt METAR EDTY 290520Z 00000KT CAVOK 13/11 Q1016
06:50
V
12 °C 10 km+ - 080° 080° 3 kt METAR EDTY 290450Z 08003KT CAVOK 12/10 Q1016
06:20
V
12 °C 10 km+ 8.900 ft 080° 080° 3 kt METAR EDTY 290420Z AUTO 08003KT 9999 // BKN089/// OVC110/// 12/10 Q1016
05:50
V
12 °C 10 km+ 9.600 ft Var Var 1 kt METAR EDTY 290350Z AUTO VRB01KT 9999 // FEW070/// OVC096/// 12/10 Q1016
05:20
V
13 °C 10 km+ 7.000 ft Var Var 2 kt METAR EDTY 290320Z AUTO VRB02KT 9999 // BKN070/// BKN099/// OVC120/// 13/08 Q1016
04:50
V
12 °C 10 km+ 7.000 ft 360° 360° 0 kt METAR EDTY 290250Z AUTO 00000KT 9999 // OVC070/// 12/10 Q1017
04:20
V
12 °C 10 km+ 6.800 ft Var Var 2 kt METAR EDTY 290220Z AUTO VRB02KT 9999 // OVC068/// 12/09 Q1017
03:50
V
12 °C 10 km+ 7.100 ft Var Var 1 kt METAR EDTY 290150Z AUTO VRB01KT 9999 // OVC071/// 12/10 Q1017
03:20
V
12 °C 10 km+ 7.200 ft Var Var 2 kt METAR EDTY 290120Z AUTO VRB02KT 9999 // OVC072/// 12/09 Q1017
02:50
V
12 °C 10 km+ 7.300 ft 360° 360° 0 kt METAR EDTY 290050Z AUTO 00000KT 9999 // OVC073/// 12/09 Q1018
02:20
V
11 °C 10 km+ 7.200 ft 120° 120° 2 kt METAR EDTY 290020Z AUTO 12002KT 9999 // OVC072/// 11/10 Q1018
01:50
V
12 °C 10 km+ 7.300 ft 110° 110° 3 kt METAR EDTY 282350Z AUTO 11003KT 9999 // OVC073/// 12/10 Q1018
01:20
V
11 °C 10 km+ 7.400 ft 090° 090° 4 kt METAR EDTY 282320Z AUTO 09004KT 9999 // OVC074/// 11/10 Q1018
00:50
V
11 °C 10 km+ 7.500 ft Var Var 1 kt METAR EDTY 282250Z AUTO VRB01KT 9999 // OVC075/// 11/10 Q1019
00:20
V
11 °C 10 km+ 7.400 ft 080° 080° 2 kt METAR EDTY 282220Z AUTO 08002KT 9999 // OVC074/// 11/09 Q1019

28 maja 2024

Czas Kod Pogoda Temp. Widoczność Sufit Wiatr METAR/SPECI
23:50
V
12 °C 10 km+ 7.600 ft 090° 090° 2 kt METAR EDTY 282150Z AUTO 09002KT 9999 // OVC076/// 12/09 Q1019
23:20
V
11 °C 10 km+ 7.900 ft 360° 360° 0 kt METAR EDTY 282120Z AUTO 00000KT 9999 // BKN079/// 11/09 Q1019
22:50
V
11 °C 10 km+ 8.200 ft 100° 100° 4 kt METAR EDTY 282050Z AUTO 10004KT 9999 // OVC082/// 11/09 Q1019
22:20
V
11 °C 10 km+ 8.400 ft 110° 110° 3 kt METAR EDTY 282020Z AUTO 11003KT 9999 // BKN084/// 11/08 Q1019
21:50
V
12 °C 10 km+ - 110° 110° 2 kt METAR EDTY 281950Z AUTO 11002KT 9999 // NCD 12/08 Q1019
21:20
V
14 °C 10 km+ - Var Var 1 kt METAR EDTY 281920Z AUTO VRB01KT 9999 // NCD 14/08 Q1019
20:50
V
16 °C 10 km+ - 310° 310° 2 kt METAR EDTY 281850Z AUTO 31002KT 9999 // NCD 16/06 Q1019
20:20
V
17 °C 10 km+ - 320° 320° 2 kt METAR EDTY 281820Z AUTO 32002KT 9999 // NCD 17/08 Q1019
19:50
V
17 °C 10 km+ - 310° 310° 5 kt METAR EDTY 281750Z 31005KT CAVOK 17/06 Q1019
19:20
V
17 °C 10 km+ - 300° 300° 5 kt METAR EDTY 281720Z 30005KT 270V330 CAVOK 17/06 Q1019
18:50
V
17 °C 10 km+ - 290° 290° 6 kt METAR EDTY 281650Z 29006KT 250V320 9999 FEW048 17/06 Q1019
18:20
V
18 °C 10 km+ - 310° 310° 5 kt METAR EDTY 281620Z 31005KT 270V350 9999 FEW049 18/07 Q1019
17:50
V
18 °C 10 km+ - 310° 310° 5 kt METAR EDTY 281550Z 31005KT 280V350 9999 FEW045 18/08 Q1019
17:20
V
16 °C 10 km+ - 300° 300° 3 kt METAR EDTY 281520Z 30003KT 260V350 9999 SCT047 16/07 Q1020
16:50
V
16 °C 10 km+ - 310° 310° 5 kt METAR EDTY 281450Z 31005KT 280V360 9999 FEW049 16/07 Q1020
16:20
V
16 °C 10 km+ - 330° 330° 8 kt METAR EDTY 281420Z 33008KT 300V360 9999 FEW049 16/07 Q1020
15:50
V
17 °C 10 km+ - 300° 300° 8 kt METAR EDTY 281350Z 30008KT 280V340 9999 FEW049 17/07 Q1020
15:20
V
17 °C 10 km+ - 260° 260° 6 kt METAR EDTY 281320Z 26006KT 220V290 9999 FEW049 17/07 Q1020
14:50
V
17 °C 10 km+ - 260° 260° 7 kt METAR EDTY 281250Z 26007KT 170V320 9999 FEW049 17/06 Q1020
14:20
V
16 °C 10 km+ - 280° 280° 9 kt METAR EDTY 281220Z 28009KT 250V310 9999 FEW049 16/06 Q1020
13:50
V
16 °C 10 km+ - 300° 300° 9 kt METAR EDTY 281150Z 30009KT 260V330 9999 SCT049 16/06 Q1021
13:20
V
16 °C 10 km+ - 280° 280° 10 kt METAR EDTY 281120Z 28010KT 240V320 9999 SCT047 16/06 Q1021
12:50
V
16 °C 10 km+ - 280° 280° 11 kt METAR EDTY 281050Z 28011KT 260V320 9999 SCT047 16/09 Q1021
12:20
V
16 °C 10 km+ - 270° 270° 9 kt METAR EDTY 281020Z 27009KT 220V310 9999 SCT042 16/08 Q1021
11:50
V
15 °C 10 km+ - 290° 290° 8 kt METAR EDTY 280950Z 29008KT 250V310 9999 SCT041 15/08 Q1021
11:20
V
14 °C 10 km+ - 290° 290° 11 kt METAR EDTY 280920Z 29011KT 9999 SCT038 14/06 Q1021
10:50
V
15 °C 10 km+ - 260° 260° 9 kt METAR EDTY 280850Z 26009KT 240V300 9999 SCT036 15/06 Q1021
10:20
M
15 °C 10 km+ 2.900 ft 270° 270° 9 kt METAR EDTY 280820Z 27009KT 240V300 9999 BKN029 15/07 Q1021
09:50
M
14 °C 10 km+ 2.400 ft 260° 260° 10 kt METAR EDTY 280750Z 26010KT 9999 BKN024 14/08 Q1021
09:20
V
13 °C 10 km+ - 270° 270° 10 kt METAR EDTY 280720Z 27010KT 240V300 9999 FEW020 SCT023 13/08 Q1021
08:50
M
13 °C 10 km+ 1.800 ft 260° 260° 9 kt METAR EDTY 280650Z 26009KT 9999 BKN018 13/09 Q1020
08:20
M
13 °C 10 km+ 1.800 ft 280° 280° 9 kt METAR EDTY 280620Z 28009KT 250V310 9999 BKN018 13/08 Q1020
07:50
V
12 °C 10 km+ - 260° 260° 8 kt METAR EDTY 280550Z 26008KT 9999 FEW021 12/09 Q1020
Zgłoś zmianę